createdAt,value
2023-03-20T06:20:25.770Z,9.30
2023-03-20T06:23:03.358Z,9.30
2023-03-20T06:25:30.498Z,9.40
2023-03-20T06:27:57.959Z,9.50
2023-03-20T06:30:24.866Z,9.60
2023-03-20T06:32:51.906Z,9.70
2023-03-20T06:35:20.569Z,9.70
2023-03-20T06:37:49.688Z,9.80
2023-03-20T06:40:25.357Z,9.90
2023-03-20T06:42:53.272Z,10.10
2023-03-20T06:45:22.714Z,10.20
2023-03-20T06:47:56.116Z,10.30
2023-03-20T06:50:23.244Z,10.30
2023-03-20T06:52:51.242Z,10.40
2023-03-20T06:55:37.162Z,10.50
2023-03-20T06:58:05.439Z,10.50
2023-03-20T07:00:34.472Z,10.40
2023-03-20T07:03:05.581Z,10.50
2023-03-20T07:05:32.812Z,10.50
2023-03-20T07:08:01.806Z,10.40
2023-03-20T07:10:28.943Z,10.40
2023-03-20T07:12:56.797Z,10.40
2023-03-20T07:15:24.819Z,10.20
2023-03-20T07:17:51.860Z,10.40
2023-03-20T07:20:19.211Z,10.50
2023-03-20T07:22:48.202Z,10.70
2023-03-20T07:25:35.699Z,10.90
2023-03-20T07:28:09.321Z,11.10
2023-03-20T07:30:39.269Z,11.20
2023-03-20T07:33:06.505Z,11.30
2023-03-20T07:35:35.019Z,11.40
2023-03-20T07:38:02.558Z,11.40
2023-03-20T07:40:29.786Z,11.50
2023-03-20T07:43:01.355Z,11.60
2023-03-20T07:45:46.761Z,11.60
2023-03-20T07:48:13.847Z,11.60
2023-03-20T07:50:40.881Z,11.60
2023-03-20T07:53:07.996Z,11.50
2023-03-20T07:55:35.085Z,11.50
2023-03-20T07:58:02.718Z,11.50
2023-03-20T08:00:30.063Z,11.50
2023-03-20T08:02:57.270Z,11.50
2023-03-20T08:05:24.884Z,11.70
2023-03-20T08:07:52.257Z,11.80
2023-03-20T08:10:19.277Z,11.90
2023-03-20T08:12:46.334Z,12.00
2023-03-20T08:15:13.688Z,12.10
2023-03-20T08:17:44.760Z,12.10
2023-03-20T08:20:13.614Z,12.40
2023-03-20T08:22:41.407Z,12.50
2023-03-20T08:25:09.430Z,12.70
2023-03-20T08:27:38.553Z,12.80
2023-03-20T08:30:05.876Z,12.80
2023-03-20T08:32:33.402Z,12.80
2023-03-20T08:35:00.299Z,13.00
2023-03-20T08:37:28.113Z,13.10
2023-03-20T08:39:54.986Z,13.20
2023-03-20T08:42:22.058Z,13.30
2023-03-20T08:44:49.214Z,13.30
2023-03-20T08:47:16.256Z,13.50
2023-03-20T08:49:43.760Z,13.50
2023-03-20T08:52:10.929Z,13.60
2023-03-20T08:54:37.806Z,13.60
2023-03-20T08:57:04.824Z,13.70
2023-03-20T08:59:31.751Z,13.70
2023-03-20T09:01:58.778Z,13.50
2023-03-20T09:04:25.906Z,13.50
2023-03-20T09:06:52.849Z,13.60
2023-03-20T09:09:21.623Z,13.70
2023-03-20T09:11:48.828Z,13.60
2023-03-20T09:14:16.148Z,13.30
2023-03-20T09:16:43.323Z,13.40
2023-03-20T09:19:10.344Z,13.60
2023-03-20T09:21:37.283Z,13.80
2023-03-20T09:24:04.571Z,13.80
2023-03-20T09:26:31.512Z,14.00
2023-03-20T09:28:58.540Z,14.10
2023-03-20T09:31:25.614Z,14.30
2023-03-20T09:33:53.614Z,14.50
2023-03-20T09:36:20.904Z,14.60
2023-03-20T09:38:47.869Z,14.70
2023-03-20T09:41:21.957Z,14.70
2023-03-20T09:44:00.923Z,14.70
2023-03-20T09:46:36.734Z,14.80
2023-03-20T09:49:30.679Z,14.90
2023-03-20T09:52:00.536Z,14.70
2023-03-20T09:54:43.542Z,14.70
2023-03-20T09:57:25.651Z,14.60
2023-03-20T09:59:57.569Z,14.70
2023-03-20T10:02:52.820Z,14.50
2023-03-20T10:05:35.250Z,14.30
2023-03-20T10:08:04.930Z,14.40
2023-03-20T10:10:59.905Z,14.30
2023-03-20T10:13:52.613Z,14.20
2023-03-20T10:16:45.218Z,14.10
2023-03-20T10:19:30.182Z,14.10
2023-03-20T10:22:07.929Z,14.20
2023-03-20T10:24:43.946Z,14.20
2023-03-20T10:27:34.134Z,14.10
2023-03-20T10:30:22.988Z,14.00
2023-03-20T10:33:15.959Z,14.10
2023-03-20T10:35:57.615Z,14.10
2023-03-20T10:38:36.611Z,14.10
2023-03-20T10:41:09.693Z,14.00
2023-03-20T10:43:41.628Z,14.10
2023-03-20T10:46:16.276Z,14.20
2023-03-20T10:48:50.968Z,14.20
2023-03-20T10:51:24.795Z,14.20
2023-03-20T10:53:59.686Z,14.20
2023-03-20T10:56:37.877Z,14.20
2023-03-20T10:59:11.093Z,14.10
2023-03-20T11:01:37.975Z,14.20
2023-03-20T11:04:05.169Z,14.10
2023-03-20T11:06:37.679Z,14.10
2023-03-20T11:09:18.789Z,14.00
2023-03-20T11:11:52.293Z,14.10
2023-03-20T11:14:22.871Z,14.10
2023-03-20T11:16:52.683Z,14.10
2023-03-20T11:19:22.111Z,14.30
2023-03-20T11:21:57.875Z,14.50
2023-03-20T11:24:44.637Z,14.70
2023-03-20T11:27:19.273Z,14.70
2023-03-20T11:29:49.829Z,14.80
2023-03-20T11:32:22.918Z,14.90
2023-03-20T11:34:49.911Z,15.10
2023-03-20T11:37:29.492Z,15.10
2023-03-20T11:40:00.447Z,15.30
2023-03-20T11:42:30.636Z,15.50
2023-03-20T11:44:59.933Z,15.30
2023-03-20T11:47:28.834Z,15.30
2023-03-20T11:50:01.031Z,15.00
2023-03-20T11:52:37.126Z,14.70
2023-03-20T11:55:08.178Z,15.00
2023-03-20T11:57:39.647Z,15.40
2023-03-20T12:00:23.134Z,16.00
2023-03-20T12:02:53.108Z,15.50
2023-03-20T12:05:36.735Z,15.70
2023-03-20T12:08:25.197Z,15.60
2023-03-20T12:10:59.092Z,15.50
2023-03-20T12:13:35.827Z,15.40
2023-03-20T12:16:15.839Z,15.50
2023-03-20T12:18:49.027Z,15.70
2023-03-20T12:21:27.201Z,15.50
2023-03-20T12:24:02.926Z,15.60
2023-03-20T12:26:56.229Z,15.80
2023-03-20T12:29:46.509Z,16.00
2023-03-20T12:32:21.809Z,15.80
2023-03-20T12:35:17.452Z,15.70
2023-03-20T12:37:44.417Z,16.00
2023-03-20T12:40:20.567Z,16.00
2023-03-20T12:43:01.966Z,16.00
2023-03-20T12:46:04.139Z,15.90
2023-03-20T12:48:31.308Z,15.90
2023-03-20T12:51:06.774Z,15.60
2023-03-20T12:53:57.995Z,15.20
2023-03-20T12:56:46.684Z,15.00
2023-03-20T12:59:41.072Z,15.30
2023-03-20T13:02:33.730Z,15.30
2023-03-20T13:05:12.447Z,15.40
2023-03-20T13:08:12.280Z,15.30
2023-03-20T13:11:10.240Z,15.50
2023-03-20T13:13:51.045Z,15.60
2023-03-20T13:16:37.198Z,15.40
2023-03-20T13:19:32.659Z,15.30
2023-03-20T13:22:26.869Z,15.40
2023-03-20T13:25:18.422Z,15.10
2023-03-20T13:27:59.358Z,15.00
2023-03-20T13:30:44.899Z,15.10
2023-03-20T13:33:26.855Z,14.80
2023-03-20T13:36:23.091Z,14.90
2023-03-20T13:38:55.979Z,14.70
2023-03-20T13:41:24.741Z,14.40
2023-03-20T13:44:01.180Z,14.40
2023-03-20T13:46:46.114Z,14.40
2023-03-20T13:49:38.594Z,14.70
2023-03-20T13:52:17.570Z,14.60
2023-03-20T13:54:59.001Z,14.70
2023-03-20T13:57:29.016Z,14.80
2023-03-20T14:00:29.211Z,14.80
2023-03-20T14:02:57.478Z,14.90
2023-03-20T14:05:26.582Z,14.60
2023-03-20T14:07:58.186Z,14.30
2023-03-20T14:10:24.995Z,14.30
2023-03-20T14:13:01.267Z,14.40
2023-03-20T14:15:33.204Z,14.50
2023-03-20T14:18:05.559Z,14.40
2023-03-20T14:20:38.427Z,14.00
2023-03-20T14:23:07.365Z,14.00
2023-03-20T14:25:40.600Z,14.00
2023-03-20T14:28:13.743Z,13.80
2023-03-20T14:30:43.744Z,13.80
2023-03-20T14:33:13.514Z,13.80
2023-03-20T14:35:52.470Z,13.70
2023-03-20T14:38:53.677Z,13.80
2023-03-20T14:41:31.504Z,13.90
2023-03-20T14:44:58.692Z,13.90
2023-03-20T14:47:39.109Z,13.90
2023-03-20T14:50:32.180Z,13.90
2023-03-20T14:52:59.241Z,13.80
2023-03-20T14:55:28.115Z,13.70
2023-03-20T14:57:57.189Z,13.80
2023-03-20T15:00:30.893Z,13.70
2023-03-20T15:03:14.082Z,13.60
2023-03-20T15:05:42.280Z,13.70
2023-03-20T15:08:25.782Z,13.70
2023-03-20T15:10:58.418Z,13.70
2023-03-20T15:13:27.142Z,13.50
2023-03-20T15:16:08.916Z,13.40
2023-03-20T15:18:41.046Z,13.40
2023-03-20T15:21:19.591Z,13.30
2023-03-20T15:23:48.055Z,13.40
2023-03-20T15:26:17.065Z,13.20
2023-03-20T15:28:46.385Z,13.10
2023-03-20T15:31:26.337Z,13.10
2023-03-20T15:33:54.786Z,13.00
2023-03-20T15:36:26.161Z,13.00
2023-03-20T15:38:53.409Z,12.80
2023-03-20T15:41:36.314Z,12.80
2023-03-20T15:44:15.760Z,12.70
2023-03-20T15:47:00.121Z,12.80
2023-03-20T15:49:28.854Z,12.90
2023-03-20T15:51:59.341Z,13.00
2023-03-20T15:54:26.615Z,13.00
2023-03-20T15:56:56.221Z,12.70
2023-03-20T15:59:27.849Z,12.60
2023-03-20T16:01:58.072Z,12.60
2023-03-20T16:04:27.096Z,12.60
2023-03-20T16:07:00.843Z,12.70
2023-03-20T16:09:28.420Z,12.60
2023-03-20T16:12:03.431Z,12.50
2023-03-20T16:14:32.542Z,12.40
2023-03-20T16:17:02.241Z,12.30
2023-03-20T16:19:29.826Z,12.10
2023-03-20T16:22:00.349Z,12.00
2023-03-20T16:24:31.296Z,11.90
2023-03-20T16:26:58.645Z,11.90
2023-03-20T16:29:28.391Z,11.90
2023-03-20T16:32:04.257Z,12.10
2023-03-20T16:34:35.792Z,12.10
2023-03-20T16:37:27.408Z,12.20
2023-03-20T16:40:15.028Z,12.10
2023-03-20T16:42:42.916Z,12.20
2023-03-20T16:45:29.253Z,12.20
2023-03-20T16:48:13.685Z,12.20
2023-03-20T16:50:43.287Z,12.30
2023-03-20T16:53:14.160Z,12.20
2023-03-20T16:55:50.534Z,12.30
2023-03-20T16:58:22.083Z,12.10
2023-03-20T17:00:51.865Z,12.00
2023-03-20T17:03:25.558Z,11.90
2023-03-20T17:05:59.053Z,11.80
2023-03-20T17:08:31.140Z,12.00
2023-03-20T17:11:04.635Z,12.00
2023-03-20T17:13:31.767Z,11.90
2023-03-20T17:15:59.634Z,11.90
2023-03-20T17:18:27.991Z,11.90
2023-03-20T17:20:54.866Z,11.90
2023-03-20T17:23:22.971Z,11.80
2023-03-20T17:25:51.013Z,11.90
2023-03-20T17:28:21.280Z,11.90
2023-03-20T17:30:50.093Z,11.90
2023-03-20T17:33:19.074Z,11.90
2023-03-20T17:35:47.921Z,11.90
2023-03-20T17:38:22.522Z,11.90
2023-03-20T17:40:50.650Z,11.90
2023-03-20T17:43:20.720Z,11.90
2023-03-20T17:45:48.394Z,11.90
2023-03-20T17:48:21.041Z,11.90
2023-03-20T17:50:51.128Z,11.80
2023-03-20T17:53:21.294Z,11.90
2023-03-20T17:55:48.253Z,11.90
2023-03-20T17:58:17.190Z,11.90
2023-03-20T18:00:44.299Z,11.90
2023-03-20T18:03:11.766Z,11.80
2023-03-20T18:05:39.670Z,11.80
2023-03-20T18:08:13.571Z,11.80
2023-03-20T18:10:40.860Z,11.80
2023-03-20T18:13:08.077Z,11.50
2023-03-20T18:15:35.142Z,11.50
2023-03-20T18:18:02.138Z,11.50
2023-03-20T18:20:32.536Z,11.50
2023-03-20T18:22:59.757Z,11.50
2023-03-20T18:25:27.514Z,11.60
2023-03-20T18:27:55.956Z,11.60
2023-03-20T18:30:27.710Z,11.50
2023-03-20T18:32:54.646Z,11.60
2023-03-20T18:35:21.601Z,11.50
2023-03-20T18:37:48.592Z,11.40
2023-03-20T18:40:19.818Z,11.30
2023-03-20T18:42:46.992Z,11.20
2023-03-20T18:45:14.475Z,11.20
2023-03-20T18:47:41.569Z,11.30
2023-03-20T18:50:36.527Z,11.30
2023-03-20T18:53:05.546Z,11.30
2023-03-20T18:55:33.717Z,11.30
2023-03-20T18:58:03.835Z,11.30
2023-03-20T19:00:38.170Z,11.30
2023-03-20T19:03:06.280Z,11.30
2023-03-20T19:05:33.709Z,11.40
2023-03-20T19:08:01.191Z,11.50
2023-03-20T19:10:37.858Z,11.40
2023-03-20T19:13:07.536Z,11.40
2023-03-20T19:15:36.923Z,11.40
2023-03-20T19:18:05.625Z,11.30
2023-03-20T19:20:58.624Z,11.40
2023-03-20T19:23:28.615Z,11.40
2023-03-20T19:25:56.022Z,11.30
2023-03-20T19:28:39.057Z,11.30
2023-03-20T19:31:07.960Z,11.20
2023-03-20T19:33:35.113Z,11.30
2023-03-20T19:36:04.349Z,11.30
2023-03-20T19:38:32.514Z,11.40
2023-03-20T19:41:00.287Z,11.40
2023-03-20T19:43:28.951Z,11.40
2023-03-20T19:45:58.737Z,11.40
2023-03-20T19:48:46.505Z,11.40
2023-03-20T19:51:26.619Z,11.20
2023-03-20T19:53:54.307Z,11.20
2023-03-20T19:56:23.322Z,11.20
2023-03-20T19:58:50.787Z,11.20
2023-03-20T20:01:21.449Z,11.20
2023-03-20T20:03:53.685Z,11.30
2023-03-20T20:06:22.526Z,11.30
2023-03-20T20:08:52.675Z,11.40
2023-03-20T20:11:20.865Z,11.40
2023-03-20T20:14:07.496Z,11.40
2023-03-20T20:16:36.699Z,11.40
2023-03-20T20:19:03.974Z,11.40
2023-03-20T20:24:18.145Z,11.10
2023-03-20T20:27:11.519Z,11.00
2023-03-20T20:29:38.942Z,10.90
2023-03-20T20:32:06.052Z,10.90
2023-03-20T20:35:30.798Z,10.80
2023-03-20T20:40:12.663Z,10.50
2023-03-20T20:42:40.556Z,10.40
2023-03-20T20:45:09.463Z,10.40
2023-03-20T20:47:36.737Z,10.30
2023-03-20T20:50:04.194Z,10.20
2023-03-20T20:52:34.447Z,10.10
2023-03-20T20:55:19.346Z,10.10
2023-03-20T20:57:48.792Z,10.00
2023-03-20T21:00:16.654Z,10.00
2023-03-20T21:02:43.825Z,10.00
2023-03-20T21:05:13.890Z,10.00
2023-03-20T21:07:46.311Z,10.00
2023-03-20T21:10:16.758Z,9.90
2023-03-20T21:12:58.075Z,9.90
2023-03-20T21:15:26.811Z,9.90
2023-03-20T21:18:01.010Z,9.90
2023-03-20T21:20:29.951Z,9.90
2023-03-20T21:22:56.927Z,9.90
2023-03-20T21:25:38.698Z,10.00
2023-03-20T21:28:07.513Z,10.00
2023-03-20T21:30:34.602Z,10.00
2023-03-20T21:33:01.840Z,10.00
2023-03-20T21:35:28.835Z,9.90
2023-03-20T21:40:43.676Z,10.10
2023-03-20T21:43:11.305Z,10.20
2023-03-20T21:49:04.132Z,10.10
2023-03-20T21:57:35.054Z,10.20
2023-03-20T22:02:30.949Z,10.20
2023-03-20T22:08:26.968Z,10.10
2023-03-20T22:11:34.972Z,10.20
2023-03-20T22:22:37.406Z,10.10
2023-03-20T22:25:19.787Z,9.80
2023-03-20T22:28:00.877Z,9.90
2023-03-20T22:31:08.999Z,9.90
2023-03-20T22:36:36.048Z,10.00
